Time;durP1;ratioP1;P1;durP2;ratioP2;P2;SDS_P1;SDS_P2;PMS_P1;PMS_P2;Temp;Humidity;BMP_temperature;BMP_pressure;BME280_temperature;BME280_humidity;BME280_pressure;Samples;Min_cycle;Max_cycle;Signal;HPM_P1;HPM_P2
2021/01/28 00:00:06;;;;;;;15.85;8.20;;;6.50;83.20;;;;;;5096324;28;20110;-49
2021/01/28 00:02:32;;;;;;;6.72;3.75;;;6.50;83.20;;;;;;5091101;28;20024;-49
2021/01/28 00:04:57;;;;;;;15.18;6.30;;;6.50;83.20;;;;;;5095900;28;20453;-49
2021/01/28 00:07:23;;;;;;;12.88;6.85;;;6.50;83.20;;;;;;5095526;28;20028;-49
2021/01/28 00:09:48;;;;;;;15.27;7.57;;;6.50;83.20;;;;;;5096125;28;20016;-49
2021/01/28 00:12:14;;;;;;;18.73;8.35;;;6.50;83.20;;;;;;5091443;28;20017;-49
2021/01/28 00:14:40;;;;;;;15.13;8.68;;;6.50;83.30;;;;;;5093217;28;20020;-49
2021/01/28 00:17:05;;;;;;;16.60;7.40;;;6.50;83.20;;;;;;5095463;28;20032;-49
2021/01/28 00:19:31;;;;;;;15.18;7.65;;;6.50;83.30;;;;;;5095744;28;20035;-49
2021/01/28 00:21:57;;;;;;;13.43;6.35;;;6.50;83.30;;;;;;5095478;28;20028;-49
2021/01/28 00:24:22;;;;;;;16.42;7.57;;;6.50;83.30;;;;;;5095756;28;20051;-49
2021/01/28 00:26:48;;;;;;;16.55;8.50;;;6.50;83.30;;;;;;5095467;28;20024;-49
2021/01/28 00:29:14;;;;;;;11.52;5.68;;;6.50;83.30;;;;;;5095917;28;20028;-49
2021/01/28 00:31:39;;;;;;;12.15;6.75;;;6.50;83.40;;;;;;5095430;28;20024;-49
2021/01/28 00:34:05;;;;;;;16.00;7.78;;;6.50;83.40;;;;;;5095025;28;20351;-49
2021/01/28 00:36:30;;;;;;;15.27;7.25;;;6.50;83.30;;;;;;5095032;28;20039;-49
2021/01/28 00:38:56;;;;;;;11.07;5.35;;;6.50;83.40;;;;;;5094827;28;20055;-50
2021/01/28 00:41:22;;;;;;;9.43;5.75;;;6.50;83.40;;;;;;5095512;28;20024;-49
2021/01/28 00:43:47;;;;;;;12.20;6.75;;;6.50;83.40;;;;;;5095096;28;20028;-49
2021/01/28 00:46:13;;;;;;;3.28;1.83;;;6.50;83.40;;;;;;5095023;28;20032;-50
2021/01/28 00:48:39;;;;;;;12.20;6.72;;;6.50;83.40;;;;;;5095676;28;20331;-49
2021/01/28 00:51:05;;;;;;;14.77;8.10;;;6.50;83.40;;;;;;5094701;28;20358;-49
2021/01/28 00:53:31;;;;;;;15.65;7.13;;;6.50;83.40;;;;;;5095049;28;20031;-49
2021/01/28 00:55:57;;;;;;;15.65;7.47;;;6.50;83.40;;;;;;5094528;28;20501;-49
2021/01/28 00:58:25;;;;;;;11.27;5.30;;;6.50;83.50;;;;;;5094664;28;20054;-49
2021/01/28 01:00:51;;;;;;;12.45;6.70;;;6.50;84.20;;;;;;5095146;28;20028;-49
2021/01/28 01:03:19;;;;;;;15.27;7.63;;;6.50;83.50;;;;;;5094786;28;20042;-49
2021/01/28 01:05:46;;;;;;;15.20;7.50;;;6.50;83.50;;;;;;5093971;28;20032;-50
2021/01/28 01:08:17;;;;;;;3.63;1.60;;;6.50;83.50;;;;;;5095023;28;20024;-49
2021/01/28 01:10:46;;;;;;;14.40;7.60;;;6.50;83.50;;;;;;5094617;28;20028;-49
2021/01/28 01:13:17;;;;;;;10.20;5.32;;;6.50;83.50;;;;;;5082487;28;20108;-49
2021/01/28 01:15:43;;;;;;;12.32;6.78;;;6.50;83.50;;;;;;5074357;28;20027;-49
2021/01/28 01:18:10;;;;;;;9.45;5.40;;;6.50;83.60;;;;;;5094206;28;20103;-49
2021/01/28 01:20:37;;;;;;;12.30;6.57;;;6.50;83.50;;;;;;5094194;28;20039;-49
2021/01/28 01:23:03;;;;;;;13.35;7.75;;;6.50;83.60;;;;;;5093819;28;20362;-50
2021/01/28 01:25:29;;;;;;;14.90;7.22;;;6.50;83.50;;;;;;5094378;28;20024;-49
2021/01/28 01:27:55;;;;;;;9.45;5.07;;;6.50;83.50;;;;;;5093865;28;20036;-49
2021/01/28 01:30:23;;;;;;;13.50;6.53;;;6.50;83.60;;;;;;5094374;28;20068;-49
2021/01/28 01:32:49;;;;;;;15.68;7.20;;;6.50;83.60;;;;;;5094045;28;20028;-49
2021/01/28 01:35:17;;;;;;;14.10;6.72;;;6.50;83.60;;;;;;5094281;28;20020;-49
2021/01/28 01:37:43;;;;;;;15.27;7.18;;;6.50;84.30;;;;;;5094043;28;20055;-49
2021/01/28 01:40:12;;;;;;;10.15;5.90;;;6.50;83.60;;;;;;5094378;28;20063;-49
2021/01/28 01:42:41;;;;;;;11.43;5.88;;;6.50;83.60;;;;;;5093973;28;20080;-49
2021/01/28 01:45:09;;;;;;;11.30;6.55;;;6.50;83.60;;;;;;5093809;28;20480;-49
2021/01/28 01:47:53;;;;;;;17.35;8.25;;;6.60;83.60;;;;;;5093581;28;20052;-49
2021/01/28 01:50:27;;;;;;;15.95;7.78;;;6.50;83.60;;;;;;5094161;28;20031;-49
2021/01/28 01:52:53;;;;;;;17.52;7.70;;;6.50;83.70;;;;;;5093627;28;20032;-49
2021/01/28 01:55:18;;;;;;;15.43;7.70;;;6.60;83.70;;;;;;5093784;28;20028;-49
2021/01/28 01:57:44;;;;;;;15.40;7.63;;;6.50;83.60;;;;;;5093136;28;20020;-49
2021/01/28 02:00:17;;;;;;;19.52;8.93;;;6.60;83.70;;;;;;5090017;28;20445;-49
2021/01/28 02:02:48;;;;;;;20.55;8.70;;;6.60;83.70;;;;;;5093635;28;20031;-49
2021/01/28 02:05:29;;;;;;;12.10;6.40;;;6.60;83.70;;;;;;5093569;28;20024;-49
2021/01/28 02:07:55;;;;;;;17.15;7.50;;;6.50;83.70;;;;;;5093591;28;20024;-49
2021/01/28 02:10:22;;;;;;;17.20;8.48;;;6.60;84.50;;;;;;5093074;28;20078;-49
2021/01/28 02:12:48;;;;;;;16.33;8.40;;;6.60;83.70;;;;;;5085135;28;20025;-49
2021/01/28 02:15:14;;;;;;;14.77;6.57;;;6.60;83.70;;;;;;5093660;28;20023;-49
2021/01/28 02:17:42;;;;;;;16.77;7.97;;;6.60;83.80;;;;;;5093371;28;20024;-50
2021/01/28 02:20:43;;;;;;;15.32;7.72;;;6.60;83.80;;;;;;5093101;28;20168;-49
2021/01/28 02:23:32;;;;;;;20.02;7.28;;;6.60;83.80;;;;;;5090328;28;20476;-50
2021/01/28 02:25:58;;;;;;;18.75;7.80;;;6.60;83.80;;;;;;5073911;28;20044;-49
2021/01/28 02:28:24;;;;;;;19.83;9.23;;;6.60;83.80;;;;;;5073582;28;20028;-49
2021/01/28 02:30:58;;;;;;;14.85;7.68;;;6.60;83.80;;;;;;5085107;28;20342;-50
2021/01/28 02:34:05;;;;;;;24.33;9.60;;;6.60;83.80;;;;;;5092977;28;20020;-49
2021/01/28 02:36:33;;;;;;;19.05;7.93;;;6.60;83.80;;;;;;5090753;28;20020;-49
2021/01/28 02:38:59;;;;;;;19.23;8.30;;;6.60;83.80;;;;;;5090726;28;20090;-50
2021/01/28 02:41:25;;;;;;;13.55;6.38;;;6.60;83.80;;;;;;5088290;28;20772;-49
2021/01/28 02:43:51;;;;;;;15.52;7.78;;;6.60;83.90;;;;;;5083829;28;20075;-49
2021/01/28 02:46:20;;;;;;;15.35;7.65;;;6.60;83.80;;;;;;5090386;28;20126;-49
2021/01/28 02:48:50;;;;;;;19.33;8.30;;;6.60;83.90;;;;;;5090796;28;20111;-49
2021/01/28 02:51:15;;;;;;;16.88;8.63;;;6.60;83.90;;;;;;5090551;28;20042;-49
2021/01/28 02:53:47;;;;;;;17.42;7.65;;;6.60;83.90;;;;;;5090674;28;20351;-49
2021/01/28 02:56:13;;;;;;;17.90;7.97;;;6.60;83.90;;;;;;5090438;28;20043;-49
2021/01/28 02:58:39;;;;;;;15.43;6.95;;;6.60;83.90;;;;;;5090391;28;20077;-49
2021/01/28 03:01:08;;;;;;;14.30;7.13;;;6.60;83.90;;;;;;5090890;28;20032;-49
2021/01/28 03:03:33;;;;;;;20.35;7.68;;;6.60;84.00;;;;;;5090343;28;20073;-49
2021/01/28 03:05:59;;;;;;;17.08;7.60;;;6.60;84.00;;;;;;5089966;28;20027;-49
2021/01/28 03:08:26;;;;;;;15.15;7.30;;;6.60;84.00;;;;;;5076686;28;20047;-49
2021/01/28 03:10:53;;;;;;;20.25;7.60;;;6.60;83.90;;;;;;5093210;28;20400;-50
2021/01/28 03:13:19;;;;;;;19.17;8.85;;;6.60;84.00;;;;;;5089022;28;20070;-49
2021/01/28 03:15:45;;;;;;;18.05;7.70;;;6.60;84.00;;;;;;5074513;28;20077;-49
2021/01/28 03:18:12;;;;;;;17.92;7.30;;;6.60;84.00;;;;;;5072662;28;20028;-49
2021/01/28 03:20:38;;;;;;;21.23;7.18;;;6.60;84.00;;;;;;5072772;28;20036;-49
2021/01/28 03:23:04;;;;;;;17.80;8.15;;;6.60;84.00;;;;;;5091709;28;20032;-49
2021/01/28 03:25:30;;;;;;;16.58;7.43;;;6.60;84.00;;;;;;5092403;28;20393;-49
2021/01/28 03:27:58;;;;;;;17.95;7.30;;;6.60;84.00;;;;;;5092971;28;20035;-49
2021/01/28 03:30:31;;;;;;;18.38;7.25;;;6.60;84.00;;;;;;5088990;28;20078;-49
2021/01/28 03:32:58;;;;;;;17.15;7.57;;;6.60;84.00;;;;;;5074544;28;20036;-49
2021/01/28 03:35:24;;;;;;;19.52;7.63;;;6.60;84.00;;;;;;5089782;28;20104;-49
2021/01/28 03:37:50;;;;;;;18.25;7.47;;;6.60;84.00;;;;;;5082631;28;20020;-50
2021/01/28 03:40:18;;;;;;;17.67;7.72;;;6.60;84.00;;;;;;5072589;28;20045;-49
2021/01/28 03:42:44;;;;;;;17.42;8.32;;;6.60;84.10;;;;;;5076860;28;20085;-49
2021/01/28 03:45:12;;;;;;;19.10;6.82;;;6.60;84.10;;;;;;5092727;28;20438;-49
2021/01/28 03:47:37;;;;;;;13.90;6.18;;;6.60;84.00;;;;;;5095279;28;20101;-49
2021/01/28 03:50:05;;;;;;;20.67;8.52;;;6.60;84.00;;;;;;5086055;28;20029;-49
2021/01/28 03:52:30;;;;;;;19.92;7.80;;;6.60;84.10;;;;;;5076273;28;20044;-49
2021/01/28 03:54:56;;;;;;;17.52;7.55;;;6.60;84.10;;;;;;5078080;28;20334;-49
2021/01/28 03:57:22;;;;;;;15.98;6.75;;;6.60;84.10;;;;;;5096002;28;20035;-50
2021/01/28 03:59:47;;;;;;;13.25;5.68;;;6.60;84.10;;;;;;5095987;28;20032;-49
2021/01/28 04:02:13;;;;;;;19.67;7.40;;;6.60;84.10;;;;;;5096195;28;20028;-49
2021/01/28 04:04:39;;;;;;;22.05;8.23;;;6.60;84.10;;;;;;5095910;28;20028;-49
2021/01/28 04:07:04;;;;;;;18.83;7.28;;;6.60;84.10;;;;;;5095551;28;20024;-49
2021/01/28 04:09:30;;;;;;;18.75;8.43;;;6.60;84.10;;;;;;5096198;28;20024;-49
2021/01/28 04:11:56;;;;;;;15.75;7.40;;;6.60;84.10;;;;;;5096301;28;20444;-49
2021/01/28 04:14:21;;;;;;;19.65;8.65;;;6.60;84.10;;;;;;5095635;28;20102;-49
2021/01/28 04:16:47;;;;;;;16.83;6.60;;;6.60;84.20;;;;;;5094909;28;20020;-49
2021/01/28 04:19:12;;;;;;;17.10;7.18;;;6.60;84.10;;;;;;5095813;28;20036;-50
2021/01/28 04:21:38;;;;;;;19.40;7.53;;;6.60;84.10;;;;;;5095573;28;20031;-49
2021/01/28 04:24:04;;;;;;;14.88;6.28;;;6.60;84.20;;;;;;5096060;28;20027;-49
2021/01/28 04:26:30;;;;;;;16.02;6.05;;;6.60;84.10;;;;;;5085522;28;20050;-50
2021/01/28 04:28:56;;;;;;;19.52;7.05;;;6.60;84.20;;;;;;5095056;28;20490;-50
2021/01/28 04:31:22;;;;;;;20.65;7.38;;;6.70;84.20;;;;;;5095395;28;20035;-49
2021/01/28 04:33:47;;;;;;;20.40;8.88;;;6.70;84.20;;;;;;5095497;28;20165;-49
2021/01/28 04:36:13;;;;;;;15.52;7.30;;;6.70;84.20;;;;;;5095400;28;20024;-50
2021/01/28 04:38:39;;;;;;;22.85;7.57;;;6.70;84.20;;;;;;5094876;28;20036;-49
2021/01/28 04:41:18;;;;;;;18.05;7.68;;;6.70;84.20;;;;;;5095769;28;20028;-50
2021/01/28 04:43:48;;;;;;;8.25;3.50;;;6.70;84.20;;;;;;5095038;28;20066;-49
2021/01/28 04:46:40;;;;;;;10.75;5.10;;;6.60;84.20;;;;;;5094871;28;20040;-50
2021/01/28 04:49:12;;;;;;;13.98;5.97;;;6.60;84.20;;;;;;5094689;28;20055;-50
2021/01/28 04:51:39;;;;;;;12.30;5.55;;;6.70;84.20;;;;;;5094837;28;20027;-49
2021/01/28 04:54:25;;;;;;;17.52;7.47;;;6.70;84.30;;;;;;5074595;28;20031;-49
2021/01/28 04:56:53;;;;;;;14.95;5.28;;;6.60;84.20;;;;;;5074618;28;20060;-49
2021/01/28 04:59:30;;;;;;;15.90;6.22;;;6.60;84.20;;;;;;5080676;28;20036;-50
2021/01/28 05:01:56;;;;;;;14.23;5.78;;;6.70;84.30;;;;;;5094415;28;20036;-50
2021/01/28 05:04:52;;;;;;;16.50;7.10;;;6.60;84.20;;;;;;5094832;28;20134;-49
2021/01/28 05:07:28;;;;;;;14.75;5.57;;;6.60;84.20;;;;;;5094239;28;20473;-50
2021/01/28 05:10:08;;;;;;;17.58;5.68;;;6.70;84.30;;;;;;5094321;28;20031;-49
2021/01/28 05:12:34;;;;;;;10.68;4.40;;;6.60;84.20;;;;;;5094318;28;20024;-50
2021/01/28 05:15:20;;;;;;;14.98;6.90;;;6.70;84.20;;;;;;5094116;28;20039;-49
2021/01/28 05:18:16;;;;;;;18.98;6.32;;;6.70;84.20;;;;;;5094381;28;20028;-49
2021/01/28 05:20:44;;;;;;;14.40;6.50;;;6.70;84.30;;;;;;5094038;28;20040;-49
2021/01/28 05:23:34;;;;;;;16.95;6.90;;;6.70;84.20;;;;;;5094405;28;20107;-50
2021/01/28 05:26:00;;;;;;;17.55;6.85;;;6.70;84.20;;;;;;5088388;28;20020;-49
2021/01/28 05:28:28;;;;;;;20.25;6.47;;;6.70;84.30;;;;;;5090552;28;20507;-50
2021/01/28 05:30:55;;;;;;;22.42;7.75;;;6.70;84.20;;;;;;5093456;28;20039;-50
2021/01/28 05:33:33;;;;;;;18.27;6.50;;;6.70;84.20;;;;;;5090405;28;20024;-50
2021/01/28 05:36:01;;;;;;;21.92;7.40;;;6.70;84.20;;;;;;5094078;28;20031;-49
2021/01/28 05:38:30;;;;;;;21.65;7.65;;;6.70;84.20;;;;;;5094122;28;20039;-50
2021/01/28 05:40:58;;;;;;;16.35;6.70;;;6.70;84.20;;;;;;5091981;28;20028;-49
2021/01/28 05:43:32;;;;;;;18.05;7.22;;;6.70;84.20;;;;;;5092605;28;20024;-49
2021/01/28 05:46:12;;;;;;;14.10;6.50;;;6.70;84.20;;;;;;5092333;28;20420;-49
2021/01/28 05:48:38;;;;;;;15.10;5.72;;;6.70;84.30;;;;;;5090367;28;20024;-49
2021/01/28 05:51:18;;;;;;;19.27;6.07;;;6.70;84.30;;;;;;5092587;28;20062;-49
2021/01/28 05:53:59;;;;;;;17.40;7.40;;;6.70;84.30;;;;;;5092717;28;20070;-50
2021/01/28 05:56:29;;;;;;;19.73;7.15;;;6.70;84.30;;;;;;5093029;28;20449;-50
2021/01/28 05:59:20;;;;;;;12.93;6.07;;;6.70;84.30;;;;;;5092174;28;20058;-50
2021/01/28 06:02:12;;;;;;;19.40;7.07;;;6.70;84.30;;;;;;5092928;28;20461;-50
2021/01/28 06:04:45;;;;;;;14.80;6.18;;;6.70;84.30;;;;;;5090957;28;20042;-50
2021/01/28 06:07:25;;;;;;;10.77;4.78;;;6.70;84.40;;;;;;5089153;28;20031;-49
2021/01/28 06:10:08;;;;;;;15.48;5.68;;;6.70;84.40;;;;;;5089964;28;20027;-50
2021/01/28 06:13:02;;;;;;;11.90;5.00;;;6.70;84.40;;;;;;5090272;28;21025;-50
2021/01/28 06:16:07;;;;;;;16.10;6.13;;;6.70;84.40;;;;;;5090264;28;20032;-49
2021/01/28 06:18:51;;;;;;;7.13;3.45;;;6.70;84.50;;;;;;5092998;28;20020;-50
2021/01/28 06:21:52;;;;;;;12.32;5.70;;;6.70;84.40;;;;;;5090427;28;20610;-49
2021/01/28 06:24:42;;;;;;;11.38;5.20;;;6.70;84.40;;;;;;5089571;28;20030;-50
2021/01/28 06:27:54;;;;;;;20.17;5.35;;;6.70;84.30;;;;;;5091977;28;20359;-49
2021/01/28 06:31:03;;;;;;;14.20;5.50;;;6.70;84.20;;;;;;5076616;28;20105;-50
2021/01/28 06:33:37;;;;;;;10.88;5.07;;;6.70;84.20;;;;;;5090134;28;20016;-50
2021/01/28 06:36:18;;;;;;;8.23;4.22;;;6.70;84.30;;;;;;5091882;28;20054;-50
2021/01/28 06:39:17;;;;;;;6.82;3.67;;;6.70;84.20;;;;;;5092034;28;20111;-50
2021/01/28 06:42:11;;;;;;;6.20;3.00;;;6.70;84.20;;;;;;5091977;28;20082;-50
2021/01/28 06:44:50;;;;;;;4.10;2.17;;;6.70;84.20;;;;;;5090186;28;20074;-50
2021/01/28 06:47:24;;;;;;;6.15;2.30;;;6.70;84.20;;;;;;5086935;28;20038;-50
2021/01/28 06:50:16;;;;;;;11.10;4.03;;;6.70;84.20;;;;;;5091245;28;20028;-50
2021/01/28 06:52:54;;;;;;;5.80;3.10;;;6.70;84.20;;;;;;5091375;28;20103;-50
2021/01/28 06:55:39;;;;;;;8.00;3.90;;;6.70;84.20;;;;;;5090998;28;20048;-49
2021/01/28 06:58:31;;;;;;;4.38;2.85;;;6.70;84.20;;;;;;5091792;28;20028;-50
2021/01/28 07:01:10;;;;;;;7.35;3.78;;;6.70;84.20;;;;;;5091448;28;20036;-50
2021/01/28 07:03:58;;;;;;;8.37;3.70;;;6.70;84.20;;;;;;5090274;28;20035;-50
2021/01/28 07:06:46;;;;;;;5.18;2.22;;;6.70;84.20;;;;;;5090941;28;20281;-50
2021/01/28 07:09:28;;;;;;;6.55;2.88;;;6.80;84.40;;;;;;5092615;28;20044;-50
2021/01/28 07:11:58;;;;;;;4.57;2.70;;;6.70;84.30;;;;;;5090148;28;20035;-50
2021/01/28 07:14:24;;;;;;;6.40;3.38;;;6.70;84.30;;;;;;5090474;28;20397;-50
2021/01/28 07:16:50;;;;;;;7.65;3.95;;;6.80;84.30;;;;;;5090530;28;20028;-50
2021/01/28 07:19:35;;;;;;;7.28;3.03;;;6.70;84.30;;;;;;5092959;28;20421;-50
2021/01/28 07:22:30;;;;;;;5.80;3.13;;;6.80;84.40;;;;;;5092674;28;20077;-50
2021/01/28 07:25:17;;;;;;;5.35;2.88;;;6.80;84.40;;;;;;5094070;28;20020;-50
2021/01/28 07:28:23;;;;;;;7.13;3.63;;;6.80;84.40;;;;;;5094362;28;20440;-50
2021/01/28 07:31:13;;;;;;;8.50;3.80;;;6.70;84.30;;;;;;5096095;28;20008;-50
2021/01/28 07:33:47;;;;;;;6.10;3.20;;;6.70;84.30;;;;;;5094251;28;20040;-50
2021/01/28 07:36:12;;;;;;;6.90;2.70;;;6.80;84.40;;;;;;5093413;28;20116;-50
2021/01/28 07:38:47;;;;;;;7.00;2.97;;;6.80;84.40;;;;;;5095262;28;20126;-50
2021/01/28 07:41:15;;;;;;;6.88;2.58;;;6.80;84.40;;;;;;5094750;28;20035;-50
2021/01/28 07:43:45;;;;;;;3.40;2.30;;;6.80;84.40;;;;;;5095810;28;20024;-49
2021/01/28 07:46:34;;;;;;;4.20;2.58;;;6.80;84.40;;;;;;5095852;28;20379;-49
2021/01/28 07:49:19;;;;;;;4.50;2.58;;;6.80;84.40;;;;;;5094231;28;20080;-50
2021/01/28 07:52:11;;;;;;;3.10;1.88;;;6.80;84.50;;;;;;5095162;28;20016;-49
2021/01/28 07:54:45;;;;;;;2.72;1.85;;;6.80;84.40;;;;;;5093029;28;20438;-50
2021/01/28 07:57:32;;;;;;;5.30;2.33;;;6.80;84.40;;;;;;5095169;28;20070;-50
2021/01/28 08:00:06;;;;;;;5.82;2.70;;;6.80;84.40;;;;;;5095443;28;20060;-50
2021/01/28 08:02:34;;;;;;;4.82;1.85;;;6.80;84.40;;;;;;5092643;28;20020;-50
2021/01/28 08:05:11;;;;;;;4.85;2.70;;;6.80;84.50;;;;;;5095730;28;20016;-49
2021/01/28 08:07:40;;;;;;;3.28;2.08;;;6.80;84.40;;;;;;5092989;28;20035;-50
2021/01/28 08:10:29;;;;;;;4.43;1.80;;;6.80;84.50;;;;;;5095147;28;20050;-50
2021/01/28 08:13:08;;;;;;;2.85;2.10;;;6.80;84.50;;;;;;5093759;28;20032;-50
2021/01/28 08:16:06;;;;;;;3.78;1.92;;;6.80;84.50;;;;;;5095458;28;20503;-50
2021/01/28 08:18:36;;;;;;;5.80;2.40;;;6.80;84.50;;;;;;5092557;28;20079;-50
2021/01/28 08:21:20;;;;;;;3.17;2.15;;;6.90;84.60;;;;;;5092986;28;20093;-50
2021/01/28 08:23:46;;;;;;;3.28;2.03;;;6.80;84.50;;;;;;5093254;28;20569;-49
2021/01/28 08:26:38;;;;;;;3.13;1.48;;;6.80;84.50;;;;;;5092703;28;20035;-49
2021/01/28 08:29:10;;;;;;;3.03;1.85;;;6.80;84.50;;;;;;5092690;28;20044;-49
2021/01/28 08:31:42;;;;;;;1.75;1.50;;;6.90;84.50;;;;;;5093070;28;20063;-50
2021/01/28 08:34:14;;;;;;;3.20;1.85;;;6.90;84.60;;;;;;5072751;28;20125;-49
2021/01/28 08:36:47;;;;;;;3.38;2.42;;;6.90;84.50;;;;;;5072456;28;20086;-50
2021/01/28 08:39:16;;;;;;;2.45;1.70;;;6.90;84.60;;;;;;5089209;28;20036;-50
2021/01/28 08:41:43;;;;;;;1.42;1.33;;;6.90;84.60;;;;;;5093008;28;20035;-50
2021/01/28 08:44:15;;;;;;;1.05;0.95;;;6.90;84.60;;;;;;5072737;28;20382;-50
2021/01/28 08:46:44;;;;;;;2.40;1.70;;;6.90;84.60;;;;;;5072299;28;20070;-49
2021/01/28 08:49:20;;;;;;;2.05;1.58;;;6.90;84.60;;;;;;5072608;28;20056;-49
2021/01/28 08:52:01;;;;;;;1.08;0.82;;;6.90;84.70;;;;;;5092196;28;20032;-50
2021/01/28 08:54:30;;;;;;;2.65;1.58;;;6.90;84.60;;;;;;5092561;28;20040;-50
2021/01/28 08:56:58;;;;;;;3.10;1.80;;;6.90;84.60;;;;;;5094961;28;20032;-50
2021/01/28 08:59:41;;;;;;;2.15;1.60;;;6.90;84.60;;;;;;5094916;28;20028;-49
2021/01/28 09:02:13;;;;;;;1.23;1.10;;;6.90;84.60;;;;;;5094586;28;20127;-50
2021/01/28 09:04:42;;;;;;;3.05;1.88;;;6.90;84.60;;;;;;5094876;28;20024;-50
2021/01/28 09:07:09;;;;;;;1.88;1.73;;;6.90;84.60;;;;;;5094583;28;20028;-49
2021/01/28 09:09:35;;;;;;;3.75;1.80;;;6.90;84.70;;;;;;5094950;28;20028;-50
2021/01/28 09:12:31;;;;;;;3.78;1.60;;;6.90;84.70;;;;;;5095017;28;20053;-49
2021/01/28 09:15:19;;;;;;;1.90;1.52;;;6.90;84.70;;;;;;5094504;28;20355;-50
2021/01/28 09:17:45;;;;;;;1.70;1.17;;;6.90;84.60;;;;;;5094543;28;20055;-50
2021/01/28 09:20:28;;;;;;;2.97;1.40;;;6.90;84.60;;;;;;5094569;28;20060;-50
2021/01/28 09:23:13;;;;;;;1.85;1.55;;;7.00;84.70;;;;;;5094447;28;20016;-49
2021/01/28 09:25:40;;;;;;;3.10;1.30;;;7.00;84.70;;;;;;5090908;28;20028;-49
2021/01/28 09:28:05;;;;;;;2.55;1.75;;;7.00;84.70;;;;;;5074322;28;20099;-49
2021/01/28 09:30:35;;;;;;;1.40;1.17;;;7.00;84.70;;;;;;5093267;28;20115;-50
2021/01/28 09:33:27;;;;;;;1.35;1.08;;;7.00;84.70;;;;;;5087582;28;20028;-50
2021/01/28 09:36:18;;;;;;;2.40;1.83;;;7.00;84.80;;;;;;5073794;28;20025;-50
2021/01/28 09:39:12;;;;;;;2.40;1.35;;;7.00;84.80;;;;;;5076031;28;20074;-50
2021/01/28 09:41:47;;;;;;;2.90;0.80;;;7.00;84.70;;;;;;5094097;28;20036;-50
2021/01/28 09:44:49;;;;;;;1.63;1.50;;;7.00;84.80;;;;;;5093730;28;20024;-49
2021/01/28 09:47:27;;;;;;;2.65;1.58;;;7.00;84.70;;;;;;5091290;28;20048;-49
2021/01/28 09:50:03;;;;;;;0.90;0.90;;;7.00;84.70;;;;;;5090805;28;20131;-49
2021/01/28 09:52:37;;;;;;;1.88;1.30;;;7.00;85.50;;;;;;5091777;28;20526;-50
2021/01/28 09:55:03;;;;;;;2.15;1.65;;;7.00;84.80;;;;;;5091635;28;20471;-49
2021/01/28 09:57:29;;;;;;;1.88;1.50;;;7.00;84.80;;;;;;5091421;28;20107;-50
2021/01/28 09:59:57;;;;;;;1.77;1.23;;;7.00;84.80;;;;;;5091117;28;20440;-49
2021/01/28 10:02:41;;;;;;;1.65;1.52;;;7.00;84.80;;;;;;5091345;28;20031;-50
2021/01/28 10:05:08;;;;;;;2.42;1.92;;;7.00;84.80;;;;;;5091392;28;20485;-50
2021/01/28 10:07:34;;;;;;;2.65;1.75;;;7.00;84.80;;;;;;5091132;28;20024;-50
2021/01/28 10:10:02;;;;;;;2.80;1.48;;;7.00;84.80;;;;;;5091290;28;20028;-50
2021/01/28 10:12:28;;;;;;;1.85;1.50;;;7.00;84.80;;;;;;5091392;28;20108;-50
2021/01/28 10:14:55;;;;;;;1.30;1.10;;;7.00;84.80;;;;;;5080609;28;20021;-50
2021/01/28 10:17:21;;;;;;;1.73;1.40;;;7.00;84.80;;;;;;5076170;28;20414;-50
2021/01/28 10:19:47;;;;;;;1.05;1.02;;;7.10;84.90;;;;;;5091064;28;20039;-49
2021/01/28 10:22:17;;;;;;;0.60;0.60;;;7.10;84.80;;;;;;5091609;28;20035;-50
2021/01/28 10:24:43;;;;;;;1.00;0.80;;;7.10;84.80;;;;;;5093419;28;20458;-50
2021/01/28 10:27:09;;;;;;;4.25;1.05;;;7.10;84.90;;;;;;5084999;28;20066;-50
2021/01/28 10:29:40;;;;;;;2.08;1.02;;;7.10;84.90;;;;;;5093314;28;20054;-50
2021/01/28 10:32:08;;;;;;;1.40;0.95;;;7.10;84.90;;;;;;5093234;28;20020;-50
2021/01/28 10:34:35;;;;;;;1.02;0.95;;;7.10;84.90;;;;;;5093136;28;20252;-50
2021/01/28 10:37:00;;;;;;;1.08;0.88;;;7.10;84.90;;;;;;5092847;28;20025;-50
2021/01/28 10:39:26;;;;;;;1.55;0.93;;;7.10;84.90;;;;;;5092828;28;20040;-49
2021/01/28 10:41:52;;;;;;;1.10;1.05;;;7.10;85.00;;;;;;5093379;28;20020;-50
2021/01/28 10:44:20;;;;;;;3.38;1.20;;;7.10;84.90;;;;;;5092897;28;20040;-50
2021/01/28 10:46:46;;;;;;;3.67;0.88;;;7.10;85.00;;;;;;5092728;28;20032;-49
2021/01/28 10:49:11;;;;;;;0.93;0.88;;;7.10;85.00;;;;;;5086812;28;20048;-50
2021/01/28 10:51:37;;;;;;;5.20;1.40;;;7.10;85.00;;;;;;5085571;28;20070;-50
2021/01/28 10:54:04;;;;;;;0.40;0.40;;;7.10;85.10;;;;;;5086507;28;20085;-50
2021/01/28 10:56:29;;;;;;;0.55;0.55;;;7.10;85.00;;;;;;5095440;28;20032;-49
2021/01/28 10:58:55;;;;;;;0.85;0.85;;;7.10;85.00;;;;;;5091247;28;20040;-50
2021/01/28 11:01:21;;;;;;;0.60;0.60;;;7.10;85.10;;;;;;5096728;28;20031;-50
2021/01/28 11:03:47;;;;;;;1.52;0.57;;;7.10;85.00;;;;;;5091693;28;20025;-49
2021/01/28 11:06:12;;;;;;;0.50;0.50;;;7.10;85.00;;;;;;5086252;28;20043;-50
2021/01/28 11:08:38;;;;;;;1.40;0.60;;;7.10;85.20;;;;;;5097107;28;20065;-50
2021/01/28 11:11:05;;;;;;;2.35;0.75;;;7.10;85.10;;;;;;5096953;28;20028;-49
2021/01/28 11:13:31;;;;;;;1.77;0.80;;;7.10;85.10;;;;;;5096731;28;20031;-49
2021/01/28 11:15:56;;;;;;;0.88;0.73;;;7.10;85.10;;;;;;5096587;28;20327;-50
2021/01/28 11:18:22;;;;;;;3.13;1.33;;;7.10;85.10;;;;;;5096698;28;20024;-50
2021/01/28 11:20:48;;;;;;;0.57;0.57;;;7.10;85.20;;;;;;5096909;28;20040;-50
2021/01/28 11:23:13;;;;;;;1.25;0.80;;;7.20;85.20;;;;;;5096689;28;20030;-50
2021/01/28 11:25:39;;;;;;;0.65;0.65;;;7.10;85.20;;;;;;5095573;28;20059;-50
2021/01/28 11:28:05;;;;;;;0.68;0.68;;;7.20;85.20;;;;;;5095710;28;20024;-50
2021/01/28 11:30:33;;;;;;;0.75;0.60;;;7.20;85.30;;;;;;5096953;28;20028;-50
2021/01/28 11:33:00;;;;;;;0.40;0.40;;;7.20;85.30;;;;;;5095873;28;20024;-50
2021/01/28 11:35:30;;;;;;;0.47;0.47;;;7.20;85.30;;;;;;5095863;28;20028;-50
2021/01/28 11:37:57;;;;;;;0.70;0.52;;;7.20;85.30;;;;;;5095455;28;20043;-50
2021/01/28 11:40:25;;;;;;;0.50;0.50;;;7.20;85.30;;;;;;5095820;28;20042;-50
2021/01/28 11:42:51;;;;;;;0.40;0.35;;;7.20;85.30;;;;;;5096332;28;20024;-50
2021/01/28 11:45:22;;;;;;;1.48;0.77;;;7.20;85.40;;;;;;5096043;28;20035;-50
2021/01/28 11:47:48;;;;;;;0.50;0.50;;;7.20;85.40;;;;;;5095351;28;20028;-50
2021/01/28 11:50:14;;;;;;;0.70;0.70;;;7.20;85.40;;;;;;5095774;28;20028;-50
2021/01/28 11:52:39;;;;;;;0.50;0.50;;;7.30;85.50;;;;;;5096111;28;20039;-50
2021/01/28 11:55:08;;;;;;;0.65;0.55;;;7.30;85.50;;;;;;5095540;28;20376;-50
2021/01/28 11:57:33;;;;;;;5.88;0.70;;;7.30;85.40;;;;;;5095515;28;20093;-50
2021/01/28 11:59:59;;;;;;;0.43;0.43;;;7.30;85.40;;;;;;5095763;28;20449;-50
2021/01/28 12:02:24;;;;;;;0.55;0.55;;;7.30;85.40;;;;;;5096469;28;20016;-50
2021/01/28 12:04:50;;;;;;;0.88;0.70;;;7.30;85.40;;;;;;5096142;28;20360;-50
2021/01/28 12:07:16;;;;;;;0.35;0.35;;;7.30;85.30;;;;;;5094771;28;20035;-50
2021/01/28 12:09:42;;;;;;;0.35;0.35;;;7.30;85.30;;;;;;5095322;28;20123;-50
2021/01/28 12:12:08;;;;;;;0.75;0.60;;;7.30;85.30;;;;;;5095937;28;20103;-50
2021/01/28 12:14:34;;;;;;;0.68;0.65;;;7.30;85.40;;;;;;5095680;28;20028;-49
2021/01/28 12:16:59;;;;;;;0.60;0.60;;;7.30;85.30;;;;;;5095182;28;20504;-50
2021/01/28 12:19:25;;;;;;;0.60;0.50;;;7.40;85.30;;;;;;5095299;28;20450;-50
2021/01/28 12:21:50;;;;;;;0.93;0.65;;;7.40;85.30;;;;;;5095775;28;20050;-50
2021/01/28 12:24:16;;;;;;;0.40;0.40;;;7.40;85.40;;;;;;5095517;28;20027;-50
2021/01/28 12:26:42;;;;;;;0.50;0.50;;;7.40;85.40;;;;;;5087930;28;20020;-50
2021/01/28 12:29:08;;;;;;;0.80;0.80;;;7.40;85.40;;;;;;5075592;28;20052;-50
2021/01/28 12:31:33;;;;;;;0.88;0.88;;;7.40;85.50;;;;;;5075415;28;20032;-49
2021/01/28 12:33:59;;;;;;;0.55;0.55;;;7.40;85.40;;;;;;5079342;28;20515;-49
2021/01/28 12:36:24;;;;;;;0.50;0.50;;;7.40;85.40;;;;;;5074276;28;20059;-50
2021/01/28 12:38:50;;;;;;;0.43;0.43;;;7.40;85.40;;;;;;5074537;28;20037;-50
2021/01/28 12:41:16;;;;;;;6.10;1.08;;;7.40;85.40;;;;;;5091791;28;20039;-50
2021/01/28 12:43:41;;;;;;;0.70;0.70;;;7.40;85.40;;;;;;5075325;28;20020;-50
2021/01/28 12:46:07;;;;;;;0.63;0.63;;;7.40;85.40;;;;;;5074647;28;20025;-50
2021/01/28 12:48:33;;;;;;;0.70;0.70;;;7.40;85.40;;;;;;5074988;28;20020;-50
2021/01/28 12:50:59;;;;;;;1.85;0.60;;;7.50;85.40;;;;;;5075001;28;20350;-50
2021/01/28 12:53:24;;;;;;;0.70;0.70;;;7.40;85.40;;;;;;5074409;28;20029;-49
2021/01/28 12:55:50;;;;;;;0.65;0.63;;;7.50;85.40;;;;;;5074498;28;20048;-49
2021/01/28 12:58:16;;;;;;;0.50;0.50;;;7.50;85.40;;;;;;5074159;28;20349;-49
2021/01/28 13:00:42;;;;;;;0.22;0.22;;;7.50;85.40;;;;;;5092654;28;20361;-50
2021/01/28 13:03:08;;;;;;;0.30;0.30;;;7.50;85.40;;;;;;5095102;28;20441;-50
2021/01/28 13:05:34;;;;;;;0.85;0.85;;;7.50;85.50;;;;;;5094688;28;20065;-50
2021/01/28 13:07:59;;;;;;;0.60;0.60;;;7.50;85.50;;;;;;5094388;28;20107;-49
2021/01/28 13:10:25;;;;;;;0.35;0.35;;;7.50;85.50;;;;;;5095083;28;20327;-50
2021/01/28 13:12:52;;;;;;;2.42;0.45;;;7.50;85.60;;;;;;5095045;28;20503;-50
2021/01/28 13:15:20;;;;;;;0.20;0.20;;;7.50;85.60;;;;;;5094518;28;20060;-50